OCN75M EDDF-LCLK
Flight info
| Callsign | OCN75M |
|---|---|
| Flight time | 3h 17m |
| Altitude | 35000 |
| Route | CINDY8S/18 CINDY Z74 HAREM DCT ASLEP DCT TAKUT DCT DINKU L603 BESNI L605 MIQ DCT ALUTU DCT BIBAG L605 ESEGA DCT VELOM DCT GOTAR DCT BABIT DCT OKLOP DCT NISVA N131 RODIP UN131 KULAR UT39 TOMBI M855 DASNI M601 BONEK BONEK1R |
| Aircraft | A320/M-SDE3FGHIRWY/LB1 |
Departure
| Time | 2026-05-05 11:18 |
|---|---|
| Airport | Frankfurt Main Airport (EDDF) |
Arrival
| Time | 2026-05-05 14:36 |
|---|---|
| Airport | Larnaca International Airport (LCLK) |
| Time | Latitude | Longitude | Altitude | Speed | Heading |
|---|---|---|---|---|---|
| 2026-05-05 10:46 | 50.04971 | 8.58286 | 382 ft | 0 kts | 340° |
| 2026-05-05 11:04 | 50.04969 | 8.58288 | 382 ft | 2 kts | 340° |
| 2026-05-05 11:04 | 50.04955 | 8.58296 | 383 ft | 2 kts | 340° |
| 2026-05-05 11:04 | 50.04945 | 8.58301 | 383 ft | 2 kts | 340° |
| 2026-05-05 11:05 | 50.04929 | 8.58311 | 384 ft | 0 kts | 340° |
| 2026-05-05 11:05 | 50.04917 | 8.58319 | 384 ft | 2 kts | 320° |
| 2026-05-05 11:05 | 50.04908 | 8.58337 | 383 ft | 2 kts | 299° |
| 2026-05-05 11:05 | 50.04903 | 8.58359 | 382 ft | 2 kts | 276° |
| 2026-05-05 11:06 | 50.04903 | 8.58381 | 381 ft | 1 kts | 254° |
| 2026-05-05 11:06 | 50.04906 | 8.58391 | 380 ft | 1 kts | 246° |
| 2026-05-05 11:06 | 50.04906 | 8.58395 | 380 ft | 0 kts | 249° |
| 2026-05-05 11:09 | 50.04906 | 8.58391 | 380 ft | 1 kts | 250° |
| 2026-05-05 11:10 | 50.04895 | 8.58347 | 382 ft | 6 kts | 250° |
| 2026-05-05 11:10 | 50.04880 | 8.58283 | 382 ft | 12 kts | 250° |
| 2026-05-05 11:10 | 50.04833 | 8.58086 | 381 ft | 16 kts | 250° |
| 2026-05-05 11:10 | 50.04796 | 8.57953 | 378 ft | 12 kts | 228° |
| 2026-05-05 11:11 | 50.04739 | 8.57920 | 376 ft | 14 kts | 199° |
| 2026-05-05 11:11 | 50.04668 | 8.57734 | 373 ft | 16 kts | 250° |
| 2026-05-05 11:11 | 50.04640 | 8.57618 | 372 ft | 17 kts | 250° |
| 2026-05-05 11:11 | 50.04586 | 8.57388 | 373 ft | 16 kts | 250° |
| 2026-05-05 11:12 | 50.04544 | 8.57212 | 374 ft | 18 kts | 250° |
| 2026-05-05 11:12 | 50.04497 | 8.57016 | 373 ft | 19 kts | 250° |
| 2026-05-05 11:12 | 50.04449 | 8.56815 | 371 ft | 20 kts | 250° |
| 2026-05-05 11:12 | 50.04414 | 8.56669 | 368 ft | 22 kts | 250° |
| 2026-05-05 11:13 | 50.04355 | 8.56422 | 365 ft | 25 kts | 250° |
| 2026-05-05 11:13 | 50.04292 | 8.56157 | 362 ft | 26 kts | 250° |
| 2026-05-05 11:13 | 50.04208 | 8.55808 | 358 ft | 26 kts | 250° |
| 2026-05-05 11:13 | 50.04145 | 8.55543 | 358 ft | 24 kts | 250° |
| 2026-05-05 11:14 | 50.04086 | 8.55295 | 357 ft | 24 kts | 250° |
| 2026-05-05 11:14 | 50.04024 | 8.55040 | 352 ft | 26 kts | 250° |
| 2026-05-05 11:14 | 50.03963 | 8.54787 | 348 ft | 24 kts | 250° |
| 2026-05-05 11:14 | 50.03903 | 8.54534 | 345 ft | 25 kts | 250° |
| 2026-05-05 11:15 | 50.03862 | 8.54377 | 345 ft | 22 kts | 240° |
| 2026-05-05 11:15 | 50.03786 | 8.54165 | 346 ft | 21 kts | 251° |
| 2026-05-05 11:15 | 50.03721 | 8.53894 | 350 ft | 18 kts | 250° |
| 2026-05-05 11:15 | 50.03677 | 8.53712 | 350 ft | 18 kts | 250° |
| 2026-05-05 11:16 | 50.03630 | 8.53523 | 349 ft | 18 kts | 249° |
| 2026-05-05 11:16 | 50.03582 | 8.53321 | 346 ft | 21 kts | 250° |
| 2026-05-05 11:16 | 50.03545 | 8.53171 | 344 ft | 22 kts | 250° |
| 2026-05-05 11:16 | 50.03471 | 8.52870 | 343 ft | 22 kts | 247° |
| 2026-05-05 11:17 | 50.03433 | 8.52724 | 342 ft | 17 kts | 250° |
| 2026-05-05 11:17 | 50.03328 | 8.52593 | 340 ft | 9 kts | 179° |
| 2026-05-05 11:17 | 50.03309 | 8.52593 | 339 ft | 4 kts | 179° |
| 2026-05-05 11:17 | 50.03217 | 8.52594 | 338 ft | 34 kts | 180° |
| 2026-05-05 11:18 | 50.02722 | 8.52599 | 330 ft | 103 kts | 180° |
| 2026-05-05 11:18 | 50.01813 | 8.52608 | 332 ft | 158 kts | 180° |
| 2026-05-05 11:18 | 50.00589 | 8.52620 | 526 ft | 186 kts | 181° |
| 2026-05-05 11:18 | 49.99276 | 8.52656 | 1034 ft | 193 kts | 180° |
| 2026-05-05 11:19 | 49.97917 | 8.52752 | 1686 ft | 196 kts | 179° |
| 2026-05-05 11:19 | 49.96594 | 8.53103 | 2298 ft | 197 kts | 156° |
| 2026-05-05 11:19 | 49.95596 | 8.54585 | 2610 ft | 213 kts | 123° |
| 2026-05-05 11:19 | 49.94896 | 8.56692 | 2915 ft | 228 kts | 116° |
| 2026-05-05 11:20 | 49.94230 | 8.59037 | 3195 ft | 246 kts | 108° |
| 2026-05-05 11:20 | 49.93895 | 8.61644 | 3776 ft | 252 kts | 95° |
| 2026-05-05 11:20 | 49.93825 | 8.63532 | 4031 ft | 263 kts | 92° |
| 2026-05-05 11:20 | 49.93722 | 8.67415 | 4689 ft | 274 kts | 98° |
| 2026-05-05 11:21 | 49.93048 | 8.70128 | 5236 ft | 275 kts | 130° |
| 2026-05-05 11:21 | 49.92108 | 8.71491 | 5765 ft | 273 kts | 146° |
| 2026-05-05 11:21 | 49.90041 | 8.73673 | 6850 ft | 273 kts | 146° |
| 2026-05-05 11:21 | 49.88599 | 8.75595 | 7576 ft | 276 kts | 132° |
| 2026-05-05 11:22 | 49.87474 | 8.78020 | 8335 ft | 279 kts | 121° |
| 2026-05-05 11:22 | 49.86837 | 8.79751 | 8831 ft | 280 kts | 120° |
| 2026-05-05 11:22 | 49.85904 | 8.82376 | 9548 ft | 282 kts | 120° |
| 2026-05-05 11:22 | 49.84959 | 8.85030 | 10247 ft | 285 kts | 120° |
| 2026-05-05 11:23 | 49.83967 | 8.87791 | 10623 ft | 300 kts | 120° |
| 2026-05-05 11:23 | 49.82560 | 8.91681 | 11017 ft | 322 kts | 120° |
| 2026-05-05 11:23 | 49.81820 | 8.93725 | 11202 ft | 332 kts | 120° |
| 2026-05-05 11:23 | 49.80667 | 8.96889 | 11469 ft | 347 kts | 120° |
| 2026-05-05 11:24 | 49.79460 | 9.00203 | 11828 ft | 358 kts | 120° |
| 2026-05-05 11:24 | 49.78229 | 9.03579 | 12395 ft | 362 kts | 120° |
| 2026-05-05 11:24 | 49.77054 | 9.06992 | 12973 ft | 365 kts | 116° |
| 2026-05-05 11:24 | 49.76077 | 9.10626 | 13530 ft | 369 kts | 110° |
| 2026-05-05 11:25 | 49.74985 | 9.15671 | 14231 ft | 373 kts | 112° |
| 2026-05-05 11:25 | 49.74307 | 9.18095 | 14575 ft | 374 kts | 118° |
| 2026-05-05 11:25 | 49.72953 | 9.21545 | 15091 ft | 376 kts | 128° |
| 2026-05-05 11:25 | 49.71314 | 9.24656 | 15604 ft | 377 kts | 132° |
| 2026-05-05 11:26 | 49.69603 | 9.27719 | 16098 ft | 380 kts | 133° |
| 2026-05-05 11:26 | 49.67269 | 9.31836 | 16763 ft | 383 kts | 133° |
| 2026-05-05 11:26 | 49.65502 | 9.34945 | 17232 ft | 386 kts | 133° |
| 2026-05-05 11:26 | 49.64345 | 9.36982 | 17531 ft | 388 kts | 133° |
| 2026-05-05 11:27 | 49.62694 | 9.40320 | 17943 ft | 393 kts | 125° |
| 2026-05-05 11:27 | 49.60999 | 9.45325 | 18512 ft | 401 kts | 114° |
| 2026-05-05 11:27 | 49.60061 | 9.49394 | 18941 ft | 404 kts | 111° |
| 2026-05-05 11:27 | 49.59185 | 9.53528 | 19352 ft | 407 kts | 110° |
| 2026-05-05 11:28 | 49.58609 | 9.56261 | 19620 ft | 409 kts | 110° |
| 2026-05-05 11:28 | 49.57727 | 9.60440 | 20012 ft | 412 kts | 110° |
| 2026-05-05 11:28 | 49.56838 | 9.64605 | 20412 ft | 414 kts | 110° |
| 2026-05-05 11:28 | 49.55931 | 9.68819 | 20807 ft | 416 kts | 111° |
| 2026-05-05 11:29 | 49.55010 | 9.73078 | 21197 ft | 418 kts | 111° |
| 2026-05-05 11:29 | 49.54100 | 9.77270 | 21561 ft | 420 kts | 112° |
| 2026-05-05 11:29 | 49.53401 | 9.80060 | 21792 ft | 421 kts | 116° |
| 2026-05-05 11:29 | 49.51543 | 9.85367 | 22278 ft | 420 kts | 126° |
| 2026-05-05 11:30 | 49.49822 | 9.88972 | 22607 ft | 421 kts | 131° |
| 2026-05-05 11:30 | 49.47378 | 9.93618 | 23066 ft | 424 kts | 131° |
| 2026-05-05 11:30 | 49.46149 | 9.95925 | 23271 ft | 425 kts | 131° |
| 2026-05-05 11:30 | 49.44264 | 9.99471 | 23581 ft | 428 kts | 131° |
| 2026-05-05 11:31 | 49.41747 | 10.04217 | 24020 ft | 431 kts | 131° |
| 2026-05-05 11:31 | 49.39868 | 10.07765 | 24329 ft | 433 kts | 131° |
| 2026-05-05 11:31 | 49.37961 | 10.11363 | 24655 ft | 435 kts | 131° |
| 2026-05-05 11:31 | 49.36682 | 10.13773 | 24877 ft | 436 kts | 131° |
| 2026-05-05 11:32 | 49.34149 | 10.18537 | 25285 ft | 438 kts | 131° |
| 2026-05-05 11:32 | 49.32850 | 10.20974 | 25484 ft | 439 kts | 131° |
| 2026-05-05 11:32 | 49.30924 | 10.24584 | 25779 ft | 440 kts | 131° |
| 2026-05-05 11:32 | 49.28345 | 10.29413 | 26149 ft | 443 kts | 131° |
| 2026-05-05 11:33 | 49.27045 | 10.31844 | 26335 ft | 444 kts | 132° |
| 2026-05-05 11:33 | 49.25087 | 10.35486 | 26604 ft | 445 kts | 133° |
| 2026-05-05 11:33 | 49.22310 | 10.40151 | 26940 ft | 445 kts | 137° |
| 2026-05-05 11:33 | 49.20857 | 10.42346 | 27090 ft | 446 kts | 138° |
| 2026-05-05 11:34 | 49.17882 | 10.46779 | 27404 ft | 448 kts | 138° |
| 2026-05-05 11:34 | 49.16415 | 10.48964 | 27563 ft | 448 kts | 138° |
| 2026-05-05 11:34 | 49.13422 | 10.53415 | 27967 ft | 448 kts | 138° |
| 2026-05-05 11:34 | 49.11963 | 10.55581 | 28184 ft | 447 kts | 138° |
| 2026-05-05 11:35 | 49.08984 | 10.59996 | 28615 ft | 445 kts | 138° |
| 2026-05-05 11:35 | 49.06781 | 10.63256 | 28934 ft | 444 kts | 138° |
| 2026-05-05 11:35 | 49.05294 | 10.65453 | 29158 ft | 443 kts | 139° |
| 2026-05-05 11:35 | 49.03096 | 10.68695 | 29469 ft | 442 kts | 139° |
| 2026-05-05 11:36 | 49.00911 | 10.71907 | 29763 ft | 441 kts | 139° |
| 2026-05-05 11:36 | 48.97970 | 10.76229 | 30147 ft | 440 kts | 139° |
| 2026-05-05 11:36 | 48.96524 | 10.78350 | 30332 ft | 439 kts | 139° |
| 2026-05-05 11:36 | 48.94316 | 10.81584 | 30597 ft | 438 kts | 139° |
| 2026-05-05 11:37 | 48.92124 | 10.84792 | 30841 ft | 438 kts | 140° |
| 2026-05-05 11:37 | 48.89936 | 10.87997 | 31058 ft | 438 kts | 139° |
| 2026-05-05 11:37 | 48.87750 | 10.91194 | 31279 ft | 439 kts | 139° |
| 2026-05-05 11:37 | 48.84829 | 10.95466 | 31622 ft | 438 kts | 139° |
| 2026-05-05 11:38 | 48.83361 | 10.97611 | 31788 ft | 438 kts | 140° |
| 2026-05-05 11:38 | 48.80460 | 11.01842 | 32117 ft | 437 kts | 140° |
| 2026-05-05 11:38 | 48.78991 | 11.03981 | 32273 ft | 437 kts | 140° |
| 2026-05-05 11:38 | 48.76792 | 11.07180 | 32506 ft | 436 kts | 140° |
| 2026-05-05 11:39 | 48.73895 | 11.11377 | 32818 ft | 436 kts | 140° |
| 2026-05-05 11:39 | 48.72436 | 11.13485 | 32967 ft | 435 kts | 140° |
| 2026-05-05 11:39 | 48.70254 | 11.16708 | 33163 ft | 437 kts | 137° |
| 2026-05-05 11:39 | 48.68237 | 11.20115 | 33338 ft | 440 kts | 133° |
| 2026-05-05 11:40 | 48.65795 | 11.25108 | 33545 ft | 444 kts | 127° |
| 2026-05-05 11:40 | 48.64189 | 11.29135 | 33678 ft | 448 kts | 122° |
| 2026-05-05 11:40 | 48.63289 | 11.31770 | 33766 ft | 450 kts | 119° |
| 2026-05-05 11:40 | 48.62052 | 11.36070 | 33904 ft | 454 kts | 115° |
| 2026-05-05 11:41 | 48.61018 | 11.40588 | 34032 ft | 457 kts | 111° |
| 2026-05-05 11:41 | 48.59741 | 11.46721 | 34215 ft | 458 kts | 111° |
| 2026-05-05 11:41 | 48.58792 | 11.51295 | 34346 ft | 458 kts | 111° |
| 2026-05-05 11:41 | 48.57823 | 11.55916 | 34464 ft | 459 kts | 111° |
| 2026-05-05 11:42 | 48.57215 | 11.58989 | 34536 ft | 461 kts | 109° |
| 2026-05-05 11:42 | 48.56437 | 11.63633 | 34650 ft | 463 kts | 106° |
| 2026-05-05 11:42 | 48.55516 | 11.69920 | 34777 ft | 464 kts | 106° |
| 2026-05-05 11:43 | 48.54372 | 11.77821 | 34816 ft | 465 kts | 106° |
| 2026-05-05 11:43 | 48.52987 | 11.87322 | 34817 ft | 465 kts | 106° |
| 2026-05-05 11:44 | 48.51582 | 11.96875 | 34810 ft | 465 kts | 106° |
| 2026-05-05 11:44 | 48.50176 | 12.06351 | 34803 ft | 465 kts | 106° |
| 2026-05-05 11:45 | 48.48512 | 12.17462 | 34804 ft | 466 kts | 106° |
| 2026-05-05 11:45 | 48.47321 | 12.25337 | 34806 ft | 466 kts | 106° |
| 2026-05-05 11:46 | 48.45870 | 12.34879 | 34809 ft | 467 kts | 106° |
| 2026-05-05 11:46 | 48.44176 | 12.45952 | 34806 ft | 468 kts | 105° |
| 2026-05-05 11:47 | 48.42711 | 12.55501 | 34805 ft | 469 kts | 105° |
| 2026-05-05 11:47 | 48.41231 | 12.65076 | 34801 ft | 470 kts | 106° |
| 2026-05-05 11:48 | 48.39042 | 12.77745 | 34789 ft | 468 kts | 111° |
| 2026-05-05 11:48 | 48.36922 | 12.86952 | 34792 ft | 468 kts | 112° |
| 2026-05-05 11:49 | 48.34772 | 12.96165 | 34794 ft | 469 kts | 112° |
| 2026-05-05 11:49 | 48.32631 | 13.05332 | 34785 ft | 469 kts | 111° |
| 2026-05-05 11:50 | 48.30465 | 13.14575 | 34784 ft | 469 kts | 111° |
| 2026-05-05 11:50 | 48.28296 | 13.23798 | 34788 ft | 470 kts | 111° |
| 2026-05-05 11:51 | 48.26124 | 13.32989 | 34789 ft | 469 kts | 111° |
| 2026-05-05 11:51 | 48.23941 | 13.42151 | 34791 ft | 469 kts | 112° |
| 2026-05-05 11:52 | 48.21325 | 13.51020 | 34793 ft | 467 kts | 119° |
| 2026-05-05 11:52 | 48.17461 | 13.60752 | 34792 ft | 464 kts | 125° |
| 2026-05-05 11:53 | 48.13977 | 13.68833 | 34790 ft | 464 kts | 126° |
| 2026-05-05 11:53 | 48.11074 | 13.75563 | 34794 ft | 463 kts | 126° |
| 2026-05-05 11:54 | 48.07004 | 13.84985 | 34800 ft | 463 kts | 125° |
| 2026-05-05 11:54 | 48.04094 | 13.91710 | 34802 ft | 463 kts | 125° |
| 2026-05-05 11:55 | 48.00576 | 13.99815 | 34805 ft | 463 kts | 125° |
| 2026-05-05 11:55 | 47.96501 | 14.09176 | 34804 ft | 464 kts | 125° |
| 2026-05-05 11:56 | 47.93564 | 14.15900 | 34804 ft | 465 kts | 125° |
| 2026-05-05 11:56 | 47.90035 | 14.23962 | 34814 ft | 465 kts | 125° |
| 2026-05-05 11:57 | 47.86516 | 14.31976 | 34811 ft | 464 kts | 125° |
| 2026-05-05 11:57 | 47.82375 | 14.41373 | 34822 ft | 464 kts | 125° |
| 2026-05-05 11:58 | 47.79434 | 14.48025 | 34831 ft | 464 kts | 125° |
| 2026-05-05 11:58 | 47.75294 | 14.57367 | 34841 ft | 465 kts | 125° |
| 2026-05-05 11:59 | 47.72332 | 14.64031 | 34859 ft | 465 kts | 125° |
| 2026-05-05 11:59 | 47.68794 | 14.71975 | 34878 ft | 465 kts | 126° |
| 2026-05-05 12:00 | 47.65205 | 14.80006 | 34885 ft | 466 kts | 126° |
| 2026-05-05 12:00 | 47.61629 | 14.87984 | 34878 ft | 466 kts | 126° |
| 2026-05-05 12:01 | 47.58068 | 14.95906 | 34881 ft | 465 kts | 126° |
| 2026-05-05 12:01 | 47.54468 | 15.03892 | 34886 ft | 465 kts | 126° |
| 2026-05-05 12:02 | 47.50899 | 15.11779 | 34889 ft | 466 kts | 126° |
| 2026-05-05 12:02 | 47.47283 | 15.19757 | 34891 ft | 466 kts | 126° |
| 2026-05-05 12:03 | 47.43698 | 15.27641 | 34903 ft | 466 kts | 126° |
| 2026-05-05 12:03 | 47.40071 | 15.35591 | 34902 ft | 466 kts | 126° |
| 2026-05-05 12:04 | 47.36447 | 15.43516 | 34904 ft | 467 kts | 126° |
| 2026-05-05 12:04 | 47.32834 | 15.51391 | 34902 ft | 467 kts | 126° |
| 2026-05-05 12:05 | 47.29194 | 15.59302 | 34899 ft | 467 kts | 126° |
| 2026-05-05 12:05 | 47.25525 | 15.67256 | 34902 ft | 467 kts | 127° |
| 2026-05-05 12:06 | 47.21257 | 15.76479 | 34891 ft | 468 kts | 127° |
| 2026-05-05 12:06 | 47.18214 | 15.83036 | 34884 ft | 468 kts | 126° |
| 2026-05-05 12:07 | 47.13931 | 15.92240 | 34865 ft | 468 kts | 126° |
| 2026-05-05 12:07 | 47.10875 | 15.98789 | 34864 ft | 469 kts | 126° |
| 2026-05-05 12:08 | 47.06602 | 16.07924 | 34868 ft | 468 kts | 126° |
| 2026-05-05 12:08 | 47.03519 | 16.14500 | 34862 ft | 468 kts | 126° |
| 2026-05-05 12:09 | 46.99877 | 16.22409 | 34873 ft | 469 kts | 123° |
| 2026-05-05 12:09 | 46.96664 | 16.30664 | 34875 ft | 469 kts | 120° |
| 2026-05-05 12:10 | 46.93524 | 16.39015 | 34873 ft | 468 kts | 120° |
| 2026-05-05 12:10 | 46.90385 | 16.47330 | 34869 ft | 468 kts | 120° |
| 2026-05-05 12:11 | 46.87249 | 16.55608 | 34879 ft | 467 kts | 120° |
| 2026-05-05 12:11 | 46.84101 | 16.63934 | 34892 ft | 468 kts | 120° |
| 2026-05-05 12:12 | 46.80960 | 16.72206 | 34897 ft | 468 kts | 121° |
| 2026-05-05 12:12 | 46.77257 | 16.81899 | 34898 ft | 468 kts | 121° |
| 2026-05-05 12:13 | 46.74638 | 16.88724 | 34911 ft | 467 kts | 121° |
| 2026-05-05 12:13 | 46.71457 | 16.96991 | 34916 ft | 466 kts | 121° |
| 2026-05-05 12:14 | 46.67765 | 17.06552 | 34935 ft | 466 kts | 121° |
| 2026-05-05 12:14 | 46.65138 | 17.13334 | 34933 ft | 466 kts | 121° |
| 2026-05-05 12:15 | 46.61949 | 17.21542 | 34937 ft | 467 kts | 121° |
| 2026-05-05 12:15 | 46.58746 | 17.29764 | 34940 ft | 467 kts | 121° |
| 2026-05-05 12:16 | 46.55540 | 17.37972 | 34935 ft | 468 kts | 121° |
| 2026-05-05 12:16 | 46.51808 | 17.47490 | 34939 ft | 468 kts | 121° |
| 2026-05-05 12:17 | 46.49118 | 17.54333 | 34939 ft | 467 kts | 121° |
| 2026-05-05 12:17 | 46.45921 | 17.62443 | 34946 ft | 467 kts | 121° |
| 2026-05-05 12:18 | 46.42683 | 17.70629 | 34948 ft | 467 kts | 121° |
| 2026-05-05 12:18 | 46.38913 | 17.80132 | 34955 ft | 468 kts | 121° |
| 2026-05-05 12:19 | 46.36203 | 17.86942 | 34961 ft | 469 kts | 122° |
| 2026-05-05 12:19 | 46.32970 | 17.95045 | 34965 ft | 469 kts | 122° |
| 2026-05-05 12:20 | 46.29707 | 18.03200 | 34962 ft | 469 kts | 122° |
| 2026-05-05 12:20 | 46.26434 | 18.11355 | 34966 ft | 470 kts | 122° |
| 2026-05-05 12:21 | 46.23153 | 18.19505 | 34969 ft | 470 kts | 122° |
| 2026-05-05 12:21 | 46.19873 | 18.27629 | 34970 ft | 470 kts | 122° |
| 2026-05-05 12:22 | 46.16576 | 18.35766 | 34970 ft | 471 kts | 121° |
| 2026-05-05 12:22 | 46.12741 | 18.45211 | 34968 ft | 471 kts | 121° |
| 2026-05-05 12:23 | 46.09980 | 18.51991 | 34968 ft | 471 kts | 121° |
| 2026-05-05 12:23 | 46.06688 | 18.60049 | 34967 ft | 471 kts | 121° |
| 2026-05-05 12:24 | 46.03361 | 18.68169 | 34961 ft | 470 kts | 122° |
| 2026-05-05 12:24 | 46.00042 | 18.76247 | 34958 ft | 471 kts | 122° |
| 2026-05-05 12:25 | 45.96704 | 18.84340 | 34959 ft | 470 kts | 123° |
| 2026-05-05 12:25 | 45.93061 | 18.92078 | 34960 ft | 470 kts | 129° |
| 2026-05-05 12:26 | 45.88044 | 19.00270 | 34961 ft | 469 kts | 136° |
| 2026-05-05 12:26 | 45.83419 | 19.06874 | 34960 ft | 469 kts | 137° |
| 2026-05-05 12:27 | 45.79583 | 19.12344 | 34952 ft | 469 kts | 137° |
| 2026-05-05 12:27 | 45.74969 | 19.18915 | 34951 ft | 469 kts | 137° |
| 2026-05-05 12:28 | 45.70332 | 19.25507 | 34950 ft | 470 kts | 137° |
| 2026-05-05 12:28 | 45.65723 | 19.32045 | 34952 ft | 470 kts | 136° |
| 2026-05-05 12:29 | 45.61104 | 19.38584 | 34949 ft | 469 kts | 136° |
| 2026-05-05 12:29 | 45.56462 | 19.45140 | 34951 ft | 470 kts | 136° |
| 2026-05-05 12:30 | 45.51807 | 19.51696 | 34954 ft | 471 kts | 136° |
| 2026-05-05 12:30 | 45.47144 | 19.58249 | 34956 ft | 471 kts | 136° |
| 2026-05-05 12:31 | 45.41708 | 19.65866 | 34960 ft | 471 kts | 137° |
| 2026-05-05 12:31 | 45.37055 | 19.72370 | 34958 ft | 472 kts | 137° |
| 2026-05-05 12:32 | 45.33173 | 19.77784 | 34960 ft | 472 kts | 137° |
| 2026-05-05 12:32 | 45.28471 | 19.84323 | 34961 ft | 471 kts | 137° |
| 2026-05-05 12:33 | 45.23802 | 19.90805 | 34961 ft | 472 kts | 137° |
| 2026-05-05 12:33 | 45.18315 | 19.98401 | 34960 ft | 472 kts | 137° |
| 2026-05-05 12:34 | 45.14378 | 20.03837 | 34968 ft | 473 kts | 137° |
| 2026-05-05 12:34 | 45.09660 | 20.10314 | 34968 ft | 473 kts | 137° |
| 2026-05-05 12:35 | 45.04946 | 20.16762 | 34971 ft | 473 kts | 137° |
| 2026-05-05 12:35 | 45.00224 | 20.23225 | 34974 ft | 473 kts | 136° |
| 2026-05-05 12:36 | 44.95503 | 20.29680 | 34974 ft | 475 kts | 136° |
| 2026-05-05 12:36 | 44.90786 | 20.36116 | 34976 ft | 475 kts | 136° |
| 2026-05-05 12:37 | 44.86011 | 20.42615 | 34979 ft | 476 kts | 136° |
| 2026-05-05 12:37 | 44.81284 | 20.49039 | 34982 ft | 476 kts | 136° |
| 2026-05-05 12:38 | 44.76510 | 20.55510 | 34987 ft | 476 kts | 136° |
| 2026-05-05 12:38 | 44.71750 | 20.61944 | 34985 ft | 477 kts | 136° |
| 2026-05-05 12:39 | 44.66965 | 20.68397 | 34980 ft | 476 kts | 137° |
| 2026-05-05 12:39 | 44.62192 | 20.74817 | 34974 ft | 477 kts | 137° |
| 2026-05-05 12:40 | 44.57417 | 20.81224 | 34979 ft | 478 kts | 136° |
| 2026-05-05 12:40 | 44.52630 | 20.87633 | 34982 ft | 478 kts | 136° |
| 2026-05-05 12:41 | 44.47798 | 20.94089 | 34982 ft | 477 kts | 136° |
| 2026-05-05 12:41 | 44.43004 | 21.00476 | 34979 ft | 477 kts | 136° |
| 2026-05-05 12:42 | 44.38191 | 21.06877 | 34980 ft | 477 kts | 136° |
| 2026-05-05 12:42 | 44.33372 | 21.13270 | 34984 ft | 478 kts | 136° |
| 2026-05-05 12:43 | 44.28548 | 21.19654 | 34991 ft | 479 kts | 136° |
| 2026-05-05 12:43 | 44.23717 | 21.26036 | 34994 ft | 480 kts | 136° |
| 2026-05-05 12:44 | 44.18882 | 21.32405 | 34997 ft | 480 kts | 136° |
| 2026-05-05 12:44 | 44.13946 | 21.38648 | 34996 ft | 480 kts | 138° |
| 2026-05-05 12:45 | 44.08931 | 21.44823 | 35005 ft | 482 kts | 138° |
| 2026-05-05 12:45 | 44.03936 | 21.50979 | 35007 ft | 482 kts | 138° |
| 2026-05-05 12:46 | 43.98090 | 21.58189 | 35027 ft | 482 kts | 137° |
| 2026-05-05 12:46 | 43.93085 | 21.64355 | 35033 ft | 483 kts | 137° |
| 2026-05-05 12:47 | 43.88901 | 21.69501 | 35043 ft | 482 kts | 138° |
| 2026-05-05 12:47 | 43.83865 | 21.75677 | 35047 ft | 483 kts | 138° |
| 2026-05-05 12:48 | 43.78831 | 21.81838 | 35052 ft | 484 kts | 138° |
| 2026-05-05 12:48 | 43.73789 | 21.87994 | 35043 ft | 485 kts | 138° |
| 2026-05-05 12:49 | 43.68755 | 21.94128 | 35043 ft | 486 kts | 138° |
| 2026-05-05 12:49 | 43.63698 | 22.00273 | 35041 ft | 486 kts | 138° |
| 2026-05-05 12:50 | 43.58618 | 22.06433 | 35039 ft | 486 kts | 138° |
| 2026-05-05 12:50 | 43.53566 | 22.12541 | 35036 ft | 487 kts | 138° |
| 2026-05-05 12:51 | 43.48454 | 22.18708 | 35040 ft | 488 kts | 138° |
| 2026-05-05 12:51 | 43.43367 | 22.24836 | 35038 ft | 488 kts | 138° |
| 2026-05-05 12:52 | 43.38268 | 22.30963 | 35041 ft | 488 kts | 138° |
| 2026-05-05 12:52 | 43.33155 | 22.37091 | 35043 ft | 489 kts | 138° |
| 2026-05-05 12:53 | 43.28059 | 22.43186 | 35043 ft | 489 kts | 138° |
| 2026-05-05 12:53 | 43.22948 | 22.49282 | 35044 ft | 489 kts | 138° |
| 2026-05-05 12:54 | 43.15219 | 22.58479 | 35056 ft | 490 kts | 138° |
| 2026-05-05 12:55 | 43.10094 | 22.64562 | 35058 ft | 491 kts | 138° |
| 2026-05-05 12:55 | 43.04935 | 22.70672 | 35063 ft | 491 kts | 139° |
| 2026-05-05 12:56 | 42.98897 | 22.77802 | 35061 ft | 491 kts | 139° |
| 2026-05-05 12:56 | 42.94677 | 22.83022 | 35062 ft | 491 kts | 136° |
| 2026-05-05 12:57 | 42.89687 | 22.89405 | 35068 ft | 492 kts | 136° |
| 2026-05-05 12:57 | 42.84687 | 22.95797 | 35073 ft | 493 kts | 136° |
| 2026-05-05 12:58 | 42.79665 | 23.02201 | 35076 ft | 493 kts | 136° |
| 2026-05-05 12:58 | 42.74678 | 23.08543 | 35076 ft | 492 kts | 135° |
| 2026-05-05 12:59 | 42.69690 | 23.14876 | 35073 ft | 492 kts | 136° |
| 2026-05-05 12:59 | 42.64697 | 23.21198 | 35077 ft | 493 kts | 135° |
| 2026-05-05 13:00 | 42.57191 | 23.30679 | 35092 ft | 493 kts | 136° |
| 2026-05-05 13:01 | 42.47160 | 23.43294 | 35095 ft | 492 kts | 135° |
| 2026-05-05 13:01 | 42.42157 | 23.49569 | 35089 ft | 493 kts | 135° |
| 2026-05-05 13:02 | 42.37107 | 23.55888 | 35091 ft | 494 kts | 135° |
| 2026-05-05 13:02 | 42.32075 | 23.62170 | 35091 ft | 494 kts | 135° |
| 2026-05-05 13:03 | 42.27038 | 23.68384 | 35094 ft | 494 kts | 136° |
| 2026-05-05 13:03 | 42.21925 | 23.74591 | 35099 ft | 494 kts | 137° |
| 2026-05-05 13:04 | 42.16827 | 23.80777 | 35097 ft | 494 kts | 137° |
| 2026-05-05 13:04 | 42.11730 | 23.86960 | 35101 ft | 494 kts | 137° |
| 2026-05-05 13:05 | 42.06638 | 23.93123 | 35088 ft | 495 kts | 136° |
| 2026-05-05 13:05 | 42.00690 | 24.00311 | 35092 ft | 496 kts | 136° |
| 2026-05-05 13:06 | 41.96385 | 24.05490 | 35094 ft | 497 kts | 137° |
| 2026-05-05 13:06 | 41.91271 | 24.11621 | 35091 ft | 497 kts | 136° |
| 2026-05-05 13:07 | 41.86099 | 24.17817 | 35089 ft | 496 kts | 136° |
| 2026-05-05 13:07 | 41.80966 | 24.23962 | 35098 ft | 496 kts | 136° |
| 2026-05-05 13:08 | 41.75798 | 24.30133 | 35092 ft | 496 kts | 136° |
| 2026-05-05 13:08 | 41.70663 | 24.36254 | 35092 ft | 496 kts | 136° |
| 2026-05-05 13:09 | 41.65545 | 24.42338 | 35089 ft | 495 kts | 136° |
| 2026-05-05 13:09 | 41.60393 | 24.48450 | 35087 ft | 497 kts | 136° |
| 2026-05-05 13:10 | 41.55218 | 24.54574 | 35088 ft | 497 kts | 136° |
| 2026-05-05 13:10 | 41.50039 | 24.60695 | 35088 ft | 498 kts | 136° |
| 2026-05-05 13:11 | 41.44865 | 24.66799 | 35080 ft | 497 kts | 137° |
| 2026-05-05 13:11 | 41.39686 | 24.72896 | 35072 ft | 498 kts | 137° |
| 2026-05-05 13:12 | 41.34524 | 24.79002 | 35071 ft | 499 kts | 137° |
| 2026-05-05 13:12 | 41.29332 | 24.85143 | 35066 ft | 499 kts | 137° |
| 2026-05-05 13:13 | 41.24143 | 24.91264 | 35064 ft | 499 kts | 137° |
| 2026-05-05 13:13 | 41.18975 | 24.97346 | 35056 ft | 498 kts | 137° |
| 2026-05-05 13:14 | 41.13794 | 25.03431 | 35052 ft | 497 kts | 137° |
| 2026-05-05 13:14 | 41.08654 | 25.09455 | 35049 ft | 498 kts | 137° |
| 2026-05-05 13:15 | 41.03480 | 25.15509 | 35050 ft | 498 kts | 137° |
| 2026-05-05 13:15 | 40.97428 | 25.22578 | 35042 ft | 499 kts | 137° |
| 2026-05-05 13:16 | 40.93104 | 25.27614 | 35039 ft | 499 kts | 137° |
| 2026-05-05 13:16 | 40.87877 | 25.33685 | 35035 ft | 499 kts | 137° |
| 2026-05-05 13:17 | 40.82690 | 25.39696 | 35034 ft | 499 kts | 137° |
| 2026-05-05 13:17 | 40.77685 | 25.46014 | 35029 ft | 497 kts | 130° |
| 2026-05-05 13:18 | 40.73179 | 25.52836 | 35025 ft | 496 kts | 128° |
| 2026-05-05 13:18 | 40.68708 | 25.59735 | 35030 ft | 496 kts | 128° |
| 2026-05-05 13:19 | 40.64220 | 25.66621 | 35026 ft | 496 kts | 129° |
| 2026-05-05 13:19 | 40.59726 | 25.73486 | 35023 ft | 496 kts | 129° |
| 2026-05-05 13:20 | 40.55210 | 25.80368 | 35018 ft | 496 kts | 129° |
| 2026-05-05 13:20 | 40.50689 | 25.87239 | 35031 ft | 497 kts | 129° |
| 2026-05-05 13:21 | 40.46167 | 25.94034 | 35029 ft | 497 kts | 129° |
| 2026-05-05 13:21 | 40.41612 | 26.00824 | 35031 ft | 497 kts | 129° |
| 2026-05-05 13:22 | 40.37053 | 26.07617 | 35043 ft | 496 kts | 129° |
| 2026-05-05 13:22 | 40.32531 | 26.14346 | 35045 ft | 496 kts | 129° |
| 2026-05-05 13:23 | 40.27969 | 26.21126 | 35043 ft | 496 kts | 129° |
| 2026-05-05 13:23 | 40.23429 | 26.27859 | 35045 ft | 496 kts | 129° |
| 2026-05-05 13:24 | 40.18845 | 26.34645 | 35042 ft | 496 kts | 129° |
| 2026-05-05 13:24 | 40.14295 | 26.41352 | 35049 ft | 496 kts | 130° |
| 2026-05-05 13:25 | 40.09449 | 26.47774 | 35056 ft | 496 kts | 134° |
| 2026-05-05 13:25 | 40.03722 | 26.55108 | 35058 ft | 496 kts | 134° |
| 2026-05-05 13:26 | 39.98820 | 26.61384 | 35061 ft | 496 kts | 133° |
| 2026-05-05 13:26 | 39.94705 | 26.66652 | 35059 ft | 496 kts | 134° |
| 2026-05-05 13:27 | 39.89793 | 26.72930 | 35056 ft | 496 kts | 134° |
| 2026-05-05 13:27 | 39.84900 | 26.79172 | 35052 ft | 495 kts | 134° |
| 2026-05-05 13:28 | 39.79997 | 26.85415 | 35053 ft | 495 kts | 134° |
| 2026-05-05 13:28 | 39.75055 | 26.91650 | 35049 ft | 495 kts | 135° |
| 2026-05-05 13:29 | 39.70060 | 26.97765 | 35050 ft | 495 kts | 135° |
| 2026-05-05 13:29 | 39.65047 | 27.03888 | 35046 ft | 495 kts | 135° |
| 2026-05-05 13:30 | 39.60038 | 27.10015 | 35046 ft | 495 kts | 135° |
| 2026-05-05 13:30 | 39.55027 | 27.16143 | 35047 ft | 495 kts | 135° |
| 2026-05-05 13:31 | 39.50088 | 27.22323 | 35047 ft | 494 kts | 132° |
| 2026-05-05 13:31 | 39.45626 | 27.29005 | 35047 ft | 493 kts | 127° |
| 2026-05-05 13:32 | 39.41285 | 27.35864 | 35045 ft | 494 kts | 127° |
| 2026-05-05 13:32 | 39.36916 | 27.42713 | 35042 ft | 494 kts | 128° |
| 2026-05-05 13:33 | 39.32540 | 27.49519 | 35041 ft | 494 kts | 128° |
| 2026-05-05 13:33 | 39.28154 | 27.56335 | 35040 ft | 494 kts | 128° |
| 2026-05-05 13:34 | 39.23772 | 27.63138 | 35040 ft | 493 kts | 128° |
| 2026-05-05 13:34 | 39.19396 | 27.69921 | 35040 ft | 494 kts | 128° |
| 2026-05-05 13:35 | 39.15024 | 27.76685 | 35039 ft | 493 kts | 128° |
| 2026-05-05 13:35 | 39.10635 | 27.83466 | 35039 ft | 493 kts | 128° |
| 2026-05-05 13:36 | 39.06230 | 27.90242 | 35038 ft | 493 kts | 129° |
| 2026-05-05 13:36 | 39.01845 | 27.96960 | 35035 ft | 493 kts | 129° |
| 2026-05-05 13:37 | 38.97446 | 28.03697 | 35030 ft | 494 kts | 129° |
| 2026-05-05 13:37 | 38.93026 | 28.10459 | 35039 ft | 494 kts | 129° |
| 2026-05-05 13:38 | 38.88612 | 28.17198 | 35034 ft | 493 kts | 129° |
| 2026-05-05 13:38 | 38.84206 | 28.23912 | 35046 ft | 493 kts | 129° |
| 2026-05-05 13:39 | 38.79786 | 28.30633 | 35046 ft | 493 kts | 129° |
| 2026-05-05 13:39 | 38.74645 | 28.38436 | 35045 ft | 493 kts | 129° |
| 2026-05-05 13:40 | 38.70945 | 28.44041 | 35042 ft | 493 kts | 129° |
| 2026-05-05 13:40 | 38.66530 | 28.50717 | 35035 ft | 493 kts | 129° |
| 2026-05-05 13:41 | 38.62094 | 28.57380 | 35035 ft | 493 kts | 130° |
| 2026-05-05 13:41 | 38.57274 | 28.63558 | 35039 ft | 494 kts | 138° |
| 2026-05-05 13:42 | 38.51871 | 28.68968 | 35039 ft | 494 kts | 145° |
| 2026-05-05 13:42 | 38.46228 | 28.73990 | 35036 ft | 494 kts | 146° |
| 2026-05-05 13:43 | 38.40620 | 28.78979 | 35035 ft | 493 kts | 146° |
| 2026-05-05 13:43 | 38.35014 | 28.83972 | 35031 ft | 494 kts | 146° |
| 2026-05-05 13:44 | 38.29380 | 28.88987 | 35035 ft | 494 kts | 146° |
| 2026-05-05 13:44 | 38.23772 | 28.93972 | 35032 ft | 494 kts | 146° |
| 2026-05-05 13:45 | 38.18140 | 28.98970 | 35039 ft | 494 kts | 145° |
| 2026-05-05 13:45 | 38.12513 | 29.03955 | 35024 ft | 493 kts | 146° |
| 2026-05-05 13:46 | 38.06907 | 29.08911 | 35033 ft | 493 kts | 146° |
| 2026-05-05 13:46 | 38.01274 | 29.13881 | 35033 ft | 494 kts | 146° |
| 2026-05-05 13:47 | 37.95599 | 29.18881 | 35027 ft | 495 kts | 146° |
| 2026-05-05 13:47 | 37.89923 | 29.23877 | 35024 ft | 495 kts | 146° |
| 2026-05-05 13:48 | 37.84256 | 29.28849 | 35026 ft | 495 kts | 146° |
| 2026-05-05 13:48 | 37.78614 | 29.33779 | 35020 ft | 495 kts | 146° |
| 2026-05-05 13:49 | 37.72950 | 29.38722 | 35023 ft | 495 kts | 146° |
| 2026-05-05 13:49 | 37.67268 | 29.43678 | 35023 ft | 496 kts | 146° |
| 2026-05-05 13:50 | 37.61549 | 29.48659 | 35019 ft | 496 kts | 146° |
| 2026-05-05 13:50 | 37.55877 | 29.53591 | 35014 ft | 496 kts | 146° |
| 2026-05-05 13:51 | 37.50219 | 29.58502 | 35013 ft | 496 kts | 146° |
| 2026-05-05 13:51 | 37.44523 | 29.63438 | 35014 ft | 496 kts | 146° |
| 2026-05-05 13:52 | 37.38847 | 29.68352 | 35011 ft | 497 kts | 147° |
| 2026-05-05 13:52 | 37.33162 | 29.73257 | 35015 ft | 497 kts | 147° |
| 2026-05-05 13:53 | 37.27474 | 29.78152 | 35021 ft | 497 kts | 147° |
| 2026-05-05 13:53 | 37.21772 | 29.83059 | 35015 ft | 497 kts | 147° |
| 2026-05-05 13:54 | 37.16081 | 29.87955 | 35017 ft | 497 kts | 147° |
| 2026-05-05 13:54 | 37.10392 | 29.92835 | 35011 ft | 497 kts | 147° |
| 2026-05-05 13:55 | 37.04676 | 29.97725 | 35009 ft | 497 kts | 147° |
| 2026-05-05 13:55 | 36.98975 | 30.02601 | 35008 ft | 497 kts | 147° |
| 2026-05-05 13:56 | 36.93271 | 30.07477 | 35009 ft | 497 kts | 147° |
| 2026-05-05 13:56 | 36.87546 | 30.12365 | 35000 ft | 497 kts | 147° |
| 2026-05-05 13:57 | 36.81845 | 30.17209 | 34989 ft | 498 kts | 147° |
| 2026-05-05 13:57 | 36.76101 | 30.22066 | 34973 ft | 498 kts | 147° |
| 2026-05-05 13:58 | 36.70372 | 30.26908 | 34964 ft | 498 kts | 147° |
| 2026-05-05 13:58 | 36.64642 | 30.31748 | 34973 ft | 498 kts | 147° |
| 2026-05-05 13:59 | 36.56039 | 30.38997 | 34973 ft | 498 kts | 147° |
| 2026-05-05 14:00 | 36.47453 | 30.46213 | 34955 ft | 498 kts | 147° |
| 2026-05-05 14:00 | 36.41733 | 30.51012 | 34952 ft | 498 kts | 147° |
| 2026-05-05 14:01 | 36.35982 | 30.55828 | 34947 ft | 498 kts | 147° |
| 2026-05-05 14:01 | 36.30255 | 30.60616 | 34955 ft | 498 kts | 147° |
| 2026-05-05 14:02 | 36.24496 | 30.65423 | 34963 ft | 499 kts | 148° |
| 2026-05-05 14:02 | 36.18787 | 30.70182 | 34966 ft | 499 kts | 148° |
| 2026-05-05 14:03 | 36.15881 | 30.72601 | 34826 ft | 500 kts | 148° |
| 2026-05-05 14:03 | 36.13023 | 30.74977 | 34633 ft | 498 kts | 148° |
| 2026-05-05 14:03 | 36.10132 | 30.77376 | 34438 ft | 496 kts | 148° |
| 2026-05-05 14:03 | 36.07227 | 30.79568 | 34196 ft | 491 kts | 155° |
| 2026-05-05 14:04 | 36.04140 | 30.81241 | 33954 ft | 485 kts | 165° |
| 2026-05-05 14:04 | 36.00897 | 30.82363 | 33708 ft | 478 kts | 173° |
| 2026-05-05 14:04 | 35.97618 | 30.82912 | 33463 ft | 473 kts | 181° |
| 2026-05-05 14:04 | 35.94346 | 30.83125 | 33215 ft | 472 kts | 182° |
| 2026-05-05 14:05 | 35.91076 | 30.83282 | 32968 ft | 472 kts | 183° |
| 2026-05-05 14:05 | 35.87774 | 30.83441 | 32714 ft | 472 kts | 182° |
| 2026-05-05 14:05 | 35.84492 | 30.83616 | 32470 ft | 472 kts | 182° |
| 2026-05-05 14:05 | 35.81253 | 30.83801 | 32224 ft | 472 kts | 182° |
| 2026-05-05 14:06 | 35.77966 | 30.83998 | 31972 ft | 472 kts | 182° |
| 2026-05-05 14:06 | 35.74667 | 30.84199 | 31721 ft | 472 kts | 182° |
| 2026-05-05 14:06 | 35.71379 | 30.84399 | 31478 ft | 472 kts | 182° |
| 2026-05-05 14:06 | 35.68130 | 30.84666 | 31230 ft | 475 kts | 176° |
| 2026-05-05 14:07 | 35.64955 | 30.85827 | 30967 ft | 486 kts | 157° |
| 2026-05-05 14:07 | 35.62130 | 30.88203 | 30711 ft | 493 kts | 138° |
| 2026-05-05 14:07 | 35.60038 | 30.91493 | 30466 ft | 495 kts | 119° |
| 2026-05-05 14:07 | 35.58773 | 30.95427 | 30205 ft | 495 kts | 106° |
| 2026-05-05 14:08 | 35.57800 | 30.99476 | 29926 ft | 495 kts | 105° |
| 2026-05-05 14:08 | 35.56839 | 31.03525 | 29647 ft | 496 kts | 105° |
| 2026-05-05 14:08 | 35.55862 | 31.07568 | 29370 ft | 497 kts | 105° |
| 2026-05-05 14:08 | 35.54866 | 31.11600 | 29090 ft | 498 kts | 106° |
| 2026-05-05 14:09 | 35.53842 | 31.15682 | 28806 ft | 499 kts | 106° |
| 2026-05-05 14:09 | 35.52823 | 31.19709 | 28534 ft | 500 kts | 106° |
| 2026-05-05 14:09 | 35.51786 | 31.23780 | 28256 ft | 500 kts | 106° |
| 2026-05-05 14:09 | 35.50746 | 31.27854 | 28009 ft | 501 kts | 106° |
| 2026-05-05 14:10 | 35.49704 | 31.31922 | 27974 ft | 502 kts | 106° |
| 2026-05-05 14:10 | 35.48659 | 31.35999 | 27887 ft | 503 kts | 106° |
| 2026-05-05 14:10 | 35.47613 | 31.40066 | 27613 ft | 504 kts | 106° |
| 2026-05-05 14:10 | 35.46572 | 31.44107 | 27340 ft | 502 kts | 106° |
| 2026-05-05 14:11 | 35.45518 | 31.48197 | 27063 ft | 500 kts | 106° |
| 2026-05-05 14:11 | 35.44478 | 31.52221 | 26792 ft | 499 kts | 106° |
| 2026-05-05 14:11 | 35.43436 | 31.56249 | 26517 ft | 497 kts | 106° |
| 2026-05-05 14:11 | 35.42390 | 31.60293 | 26244 ft | 495 kts | 106° |
| 2026-05-05 14:12 | 35.41357 | 31.64273 | 25979 ft | 493 kts | 105° |
| 2026-05-05 14:12 | 35.40310 | 31.68308 | 25709 ft | 492 kts | 106° |
| 2026-05-05 14:12 | 35.39288 | 31.72243 | 25437 ft | 489 kts | 106° |
| 2026-05-05 14:12 | 35.38261 | 31.76179 | 24948 ft | 483 kts | 106° |
| 2026-05-05 14:13 | 35.37241 | 31.80086 | 24208 ft | 480 kts | 106° |
| 2026-05-05 14:13 | 35.36232 | 31.83947 | 23876 ft | 479 kts | 105° |
| 2026-05-05 14:13 | 35.35220 | 31.87826 | 23607 ft | 479 kts | 105° |
| 2026-05-05 14:13 | 35.34202 | 31.91716 | 23343 ft | 478 kts | 105° |
| 2026-05-05 14:14 | 35.33197 | 31.95553 | 23088 ft | 477 kts | 105° |
| 2026-05-05 14:14 | 35.32190 | 31.99394 | 22830 ft | 474 kts | 105° |
| 2026-05-05 14:14 | 35.31179 | 32.03237 | 22575 ft | 472 kts | 105° |
| 2026-05-05 14:14 | 35.30174 | 32.07053 | 22315 ft | 471 kts | 105° |
| 2026-05-05 14:15 | 35.28856 | 32.12077 | 21974 ft | 468 kts | 105° |
| 2026-05-05 14:15 | 35.28317 | 32.14134 | 21835 ft | 466 kts | 105° |
| 2026-05-05 14:15 | 35.27325 | 32.17917 | 21578 ft | 465 kts | 105° |
| 2026-05-05 14:15 | 35.26351 | 32.21632 | 21327 ft | 463 kts | 105° |
| 2026-05-05 14:16 | 35.25368 | 32.25383 | 21065 ft | 460 kts | 105° |
| 2026-05-05 14:16 | 35.24395 | 32.29092 | 20813 ft | 458 kts | 105° |
| 2026-05-05 14:16 | 35.23425 | 32.32777 | 20562 ft | 456 kts | 105° |
| 2026-05-05 14:16 | 35.22465 | 32.36423 | 20301 ft | 455 kts | 105° |
| 2026-05-05 14:17 | 35.21495 | 32.40104 | 20052 ft | 453 kts | 105° |
| 2026-05-05 14:17 | 35.20536 | 32.43735 | 19803 ft | 451 kts | 105° |
| 2026-05-05 14:17 | 35.19575 | 32.47370 | 19553 ft | 448 kts | 105° |
| 2026-05-05 14:17 | 35.18619 | 32.50979 | 19304 ft | 447 kts | 104° |
| 2026-05-05 14:18 | 35.17656 | 32.54613 | 19042 ft | 445 kts | 104° |
| 2026-05-05 14:18 | 35.16711 | 32.58172 | 18802 ft | 443 kts | 104° |
| 2026-05-05 14:18 | 35.15758 | 32.61758 | 18553 ft | 441 kts | 104° |
| 2026-05-05 14:18 | 35.14826 | 32.65262 | 18312 ft | 439 kts | 105° |
| 2026-05-05 14:19 | 35.13872 | 32.68843 | 18070 ft | 437 kts | 105° |
| 2026-05-05 14:19 | 35.12944 | 32.72323 | 17829 ft | 435 kts | 105° |
| 2026-05-05 14:19 | 35.12005 | 32.75845 | 17577 ft | 434 kts | 105° |
| 2026-05-05 14:19 | 35.11074 | 32.79325 | 17264 ft | 430 kts | 105° |
| 2026-05-05 14:20 | 35.10155 | 32.82758 | 16870 ft | 428 kts | 105° |
| 2026-05-05 14:20 | 35.09237 | 32.86187 | 16386 ft | 424 kts | 105° |
| 2026-05-05 14:20 | 35.08325 | 32.89582 | 15873 ft | 421 kts | 105° |
| 2026-05-05 14:20 | 35.07409 | 32.92985 | 15344 ft | 418 kts | 105° |
| 2026-05-05 14:21 | 35.06481 | 32.96324 | 14804 ft | 415 kts | 105° |
| 2026-05-05 14:21 | 35.05528 | 32.99628 | 14264 ft | 412 kts | 106° |
| 2026-05-05 14:21 | 35.04577 | 33.02913 | 13714 ft | 409 kts | 106° |
| 2026-05-05 14:21 | 35.03639 | 33.06164 | 13169 ft | 405 kts | 106° |
| 2026-05-05 14:22 | 35.02408 | 33.10438 | 12452 ft | 399 kts | 106° |
| 2026-05-05 14:22 | 35.01802 | 33.12542 | 12097 ft | 396 kts | 106° |
| 2026-05-05 14:22 | 35.00899 | 33.15674 | 11565 ft | 392 kts | 106° |
| 2026-05-05 14:22 | 35.00002 | 33.18782 | 11079 ft | 385 kts | 107° |
| 2026-05-05 14:23 | 34.99128 | 33.21804 | 10849 ft | 371 kts | 107° |
| 2026-05-05 14:23 | 34.98284 | 33.24710 | 10655 ft | 356 kts | 106° |
| 2026-05-05 14:23 | 34.97480 | 33.27490 | 10462 ft | 343 kts | 106° |
| 2026-05-05 14:23 | 34.96703 | 33.30173 | 10311 ft | 330 kts | 106° |
| 2026-05-05 14:24 | 34.95946 | 33.32784 | 10154 ft | 318 kts | 106° |
| 2026-05-05 14:24 | 34.95226 | 33.35263 | 10017 ft | 306 kts | 106° |
| 2026-05-05 14:24 | 34.94522 | 33.37686 | 9729 ft | 302 kts | 106° |
| 2026-05-05 14:24 | 34.93832 | 33.40069 | 9369 ft | 300 kts | 106° |
| 2026-05-05 14:25 | 34.93157 | 33.42474 | 9018 ft | 297 kts | 103° |
| 2026-05-05 14:25 | 34.92654 | 33.44894 | 8673 ft | 293 kts | 98° |
| 2026-05-05 14:25 | 34.92309 | 33.47316 | 8340 ft | 290 kts | 96° |
| 2026-05-05 14:25 | 34.91994 | 33.49725 | 8005 ft | 288 kts | 96° |
| 2026-05-05 14:26 | 34.91681 | 33.52142 | 7668 ft | 286 kts | 96° |
| 2026-05-05 14:26 | 34.91369 | 33.54518 | 7337 ft | 284 kts | 96° |
| 2026-05-05 14:26 | 34.91057 | 33.56865 | 7007 ft | 282 kts | 96° |
| 2026-05-05 14:26 | 34.90744 | 33.59204 | 6676 ft | 280 kts | 97° |
| 2026-05-05 14:27 | 34.90431 | 33.61542 | 6342 ft | 279 kts | 97° |
| 2026-05-05 14:27 | 34.90117 | 33.63870 | 6010 ft | 277 kts | 97° |
| 2026-05-05 14:27 | 34.89804 | 33.66193 | 5679 ft | 276 kts | 97° |
| 2026-05-05 14:27 | 34.89496 | 33.68480 | 5360 ft | 274 kts | 98° |
| 2026-05-05 14:28 | 34.89193 | 33.70714 | 5254 ft | 262 kts | 98° |
| 2026-05-05 14:28 | 34.88900 | 33.72863 | 5167 ft | 251 kts | 97° |
| 2026-05-05 14:28 | 34.88623 | 33.74909 | 5080 ft | 241 kts | 97° |
| 2026-05-05 14:28 | 34.88363 | 33.76883 | 4973 ft | 231 kts | 94° |
| 2026-05-05 14:29 | 34.88451 | 33.78824 | 4691 ft | 228 kts | 73° |
| 2026-05-05 14:29 | 34.89071 | 33.80547 | 4504 ft | 219 kts | 53° |
| 2026-05-05 14:29 | 34.90057 | 33.81872 | 4361 ft | 209 kts | 36° |
| 2026-05-05 14:29 | 34.91288 | 33.82745 | 4187 ft | 203 kts | 19° |
| 2026-05-05 14:30 | 34.92645 | 33.83122 | 3936 ft | 197 kts | 4° |
| 2026-05-05 14:30 | 34.94011 | 33.83012 | 3576 ft | 197 kts | 347° |
| 2026-05-05 14:30 | 34.95279 | 33.82436 | 3306 ft | 193 kts | 332° |
| 2026-05-05 14:30 | 34.96337 | 33.81477 | 3051 ft | 188 kts | 316° |
| 2026-05-05 14:31 | 34.97125 | 33.80221 | 2874 ft | 179 kts | 300° |
| 2026-05-05 14:31 | 34.97577 | 33.78876 | 2801 ft | 165 kts | 286° |
| 2026-05-05 14:31 | 34.97735 | 33.77549 | 2716 ft | 155 kts | 272° |
| 2026-05-05 14:31 | 34.97642 | 33.76236 | 2564 ft | 157 kts | 259° |
| 2026-05-05 14:32 | 34.97307 | 33.74992 | 2345 ft | 155 kts | 245° |
| 2026-05-05 14:32 | 34.96742 | 33.73861 | 2160 ft | 156 kts | 232° |
| 2026-05-05 14:32 | 34.96015 | 33.72895 | 1972 ft | 154 kts | 225° |
| 2026-05-05 14:32 | 34.95255 | 33.71979 | 1783 ft | 153 kts | 224° |
| 2026-05-05 14:33 | 34.94500 | 33.71080 | 1595 ft | 151 kts | 224° |
| 2026-05-05 14:33 | 34.93753 | 33.70184 | 1435 ft | 150 kts | 225° |
| 2026-05-05 14:33 | 34.93022 | 33.69296 | 1238 ft | 143 kts | 225° |
| 2026-05-05 14:33 | 34.92345 | 33.68472 | 1049 ft | 135 kts | 225° |
| 2026-05-05 14:34 | 34.91681 | 33.67664 | 897 ft | 135 kts | 225° |
| 2026-05-05 14:34 | 34.91016 | 33.66850 | 736 ft | 135 kts | 224° |
| 2026-05-05 14:34 | 34.90350 | 33.66036 | 575 ft | 135 kts | 224° |
| 2026-05-05 14:34 | 34.89687 | 33.65232 | 411 ft | 135 kts | 224° |
| 2026-05-05 14:35 | 34.89026 | 33.64426 | 276 ft | 135 kts | 225° |
| 2026-05-05 14:35 | 34.88369 | 33.63608 | 97 ft | 134 kts | 224° |
| 2026-05-05 14:35 | 34.87727 | 33.62832 | 15 ft | 120 kts | 225° |
| 2026-05-05 14:35 | 34.87264 | 33.62259 | 12 ft | 70 kts | 225° |
| 2026-05-05 14:36 | 34.87033 | 33.61972 | 11 ft | 29 kts | 233° |
| 2026-05-05 14:36 | 34.86963 | 33.61763 | 13 ft | 18 kts | 255° |